createdAt,value
2018-09-03T00:00:50.639Z,14.37
2018-09-03T00:01:50.584Z,14.34
2018-09-03T00:02:50.571Z,14.39
2018-09-03T00:03:50.513Z,14.47
2018-09-03T00:04:50.635Z,14.43
2018-09-03T00:05:50.831Z,14.44
2018-09-03T00:06:50.530Z,14.41
2018-09-03T00:07:50.486Z,14.42
2018-09-03T00:08:50.467Z,14.37
2018-09-03T00:09:50.459Z,14.32
2018-09-03T00:10:50.512Z,14.32
2018-09-03T00:11:50.416Z,14.33
2018-09-03T00:12:50.722Z,14.27
2018-09-03T00:13:50.484Z,14.33
2018-09-03T00:14:50.577Z,14.3
2018-09-03T00:15:50.519Z,14.28
2018-09-03T00:16:50.434Z,14.2
2018-09-03T00:17:50.523Z,14.18
2018-09-03T00:18:50.541Z,14.19
2018-09-03T00:19:50.599Z,14.2
2018-09-03T00:20:50.583Z,14.37
2018-09-03T00:21:50.512Z,14.21
2018-09-03T00:22:50.558Z,14.25
2018-09-03T00:23:50.508Z,14.17
2018-09-03T00:24:50.459Z,14.19
2018-09-03T00:25:50.478Z,14.13
2018-09-03T00:26:50.435Z,14.12
2018-09-03T00:27:50.450Z,14.18
2018-09-03T00:28:50.615Z,14.18
2018-09-03T00:29:50.463Z,14.26
2018-09-03T00:30:50.470Z,14.16
2018-09-03T00:31:51.041Z,14.17
2018-09-03T00:32:50.506Z,14.3
2018-09-03T00:33:50.441Z,14.25
2018-09-03T00:34:50.658Z,14.29
2018-09-03T00:35:50.630Z,14.26
2018-09-03T00:36:50.766Z,14.34
2018-09-03T00:37:50.464Z,14.33
2018-09-03T00:38:50.576Z,14.37
2018-09-03T00:39:50.430Z,14.26
2018-09-03T00:40:50.438Z,14.22
2018-09-03T00:41:50.428Z,14.31
2018-09-03T00:42:50.623Z,14.22
2018-09-03T00:43:50.587Z,14.22
2018-09-03T00:44:50.615Z,14.26
2018-09-03T00:45:50.586Z,14.24
2018-09-03T00:46:50.483Z,14.27
2018-09-03T00:47:50.512Z,14.3
2018-09-03T00:48:50.447Z,14.33
2018-09-03T00:49:50.477Z,14.33
2018-09-03T00:50:50.420Z,14.33
2018-09-03T00:51:50.437Z,14.37
2018-09-03T00:52:50.418Z,14.36
2018-09-03T00:53:50.465Z,14.36
2018-09-03T00:54:50.440Z,14.31
2018-09-03T00:55:50.467Z,14.28
2018-09-03T00:56:50.635Z,14.33
2018-09-03T00:57:50.436Z,14.3
2018-09-03T00:58:50.516Z,14.36
2018-09-03T00:59:50.423Z,14.33
2018-09-03T01:00:50.471Z,14.33
2018-09-03T01:01:50.472Z,14.35
2018-09-03T01:02:50.409Z,14.31
2018-09-03T01:03:50.425Z,14.21
2018-09-03T01:04:50.561Z,14.36
2018-09-03T01:05:50.778Z,14.34
2018-09-03T01:06:50.423Z,14.22
2018-09-03T01:07:50.430Z,14.2
2018-09-03T01:08:50.423Z,14.24
2018-09-03T01:09:50.647Z,14.35
2018-09-03T01:10:50.803Z,14.29
2018-09-03T01:11:50.444Z,14.38
2018-09-03T01:12:50.581Z,14.35
2018-09-03T01:13:50.459Z,14.26
2018-09-03T01:14:50.427Z,14.27
2018-09-03T01:15:50.903Z,14.39
2018-09-03T01:16:50.447Z,14.42
2018-09-03T01:17:50.401Z,14.46
2018-09-03T01:18:50.455Z,14.44
2018-09-03T01:19:50.450Z,14.35
2018-09-03T01:20:50.459Z,14.29
2018-09-03T01:21:50.428Z,14.22
2018-09-03T01:22:50.485Z,14.21
2018-09-03T01:23:50.386Z,14.25
2018-09-03T01:24:50.402Z,14.44
2018-09-03T01:25:50.763Z,14.4
2018-09-03T01:26:50.532Z,14.36
2018-09-03T01:27:50.453Z,14.28
2018-09-03T01:28:50.412Z,14.29
2018-09-03T01:29:50.389Z,14.32
2018-09-03T01:30:50.417Z,14.37
2018-09-03T01:31:50.567Z,14.33
2018-09-03T01:32:50.413Z,14.37
2018-09-03T01:33:50.476Z,14.42
2018-09-03T01:34:50.495Z,14.42
2018-09-03T01:35:50.478Z,14.34
2018-09-03T01:36:50.604Z,14.4
2018-09-03T01:37:50.734Z,14.41
2018-09-03T01:38:50.456Z,14.47
2018-09-03T01:39:50.628Z,14.46
2018-09-03T01:40:50.449Z,14.45
2018-09-03T01:41:50.547Z,14.55
2018-09-03T01:42:50.452Z,14.54
2018-09-03T01:43:50.636Z,14.54
2018-09-03T01:44:50.526Z,14.53
2018-09-03T01:45:51.718Z,14.55
2018-09-03T01:46:50.471Z,14.52
2018-09-03T01:47:50.410Z,14.56
2018-09-03T01:48:50.392Z,14.52
2018-09-03T01:49:50.667Z,14.52
2018-09-03T01:50:50.391Z,14.45
2018-09-03T01:51:50.445Z,14.4
2018-09-03T01:52:50.404Z,14.42
2018-09-03T01:53:50.409Z,14.46
2018-09-03T01:54:50.461Z,14.47
2018-09-03T01:55:50.391Z,14.44
2018-09-03T01:56:50.499Z,14.37
2018-09-03T01:57:50.489Z,14.37
2018-09-03T01:58:50.393Z,14.39
2018-09-03T01:59:50.536Z,14.28
2018-09-03T02:00:50.437Z,14.42
2018-09-03T02:01:50.518Z,14.36
2018-09-03T02:02:50.477Z,14.3
2018-09-03T02:03:50.798Z,14.31
2018-09-03T02:04:50.541Z,14.35
2018-09-03T02:05:50.669Z,14.4
2018-09-03T02:06:50.452Z,14.38
2018-09-03T02:07:50.454Z,14.39
2018-09-03T02:08:50.791Z,14.29
2018-09-03T02:09:50.486Z,14.34
2018-09-03T02:10:50.506Z,14.33
2018-09-03T02:11:50.601Z,14.33
2018-09-03T02:12:50.437Z,14.32
2018-09-03T02:13:50.519Z,14.35
2018-09-03T02:14:50.465Z,14.32
2018-09-03T02:15:50.470Z,14.4
2018-09-03T02:16:50.420Z,14.32
2018-09-03T02:17:50.383Z,14.37
2018-09-03T02:18:51.228Z,14.28
2018-09-03T02:19:50.514Z,14.27
2018-09-03T02:20:50.548Z,14.28
2018-09-03T02:21:50.469Z,14.25
2018-09-03T02:22:50.417Z,14.27
2018-09-03T02:23:50.381Z,14.21
2018-09-03T02:24:50.404Z,14.13
2018-09-03T02:25:50.437Z,14.14
2018-09-03T02:26:50.378Z,14.24
2018-09-03T02:27:50.404Z,14.25
2018-09-03T02:28:50.388Z,14.27
2018-09-03T02:29:50.391Z,14.17
2018-09-03T02:30:50.440Z,14.2
2018-09-03T02:31:50.374Z,14.15
2018-09-03T02:32:50.387Z,14.13
2018-09-03T02:33:50.419Z,14.21
2018-09-03T02:34:50.458Z,14.16
2018-09-03T02:35:50.757Z,14.12
2018-09-03T02:36:50.402Z,14.23
2018-09-03T02:37:50.415Z,14.34
2018-09-03T02:38:50.361Z,14.36
2018-09-03T02:39:50.429Z,14.27
2018-09-03T02:40:50.464Z,14.25
2018-09-03T02:41:50.690Z,14.33
2018-09-03T02:42:50.595Z,14.25
2018-09-03T02:43:50.691Z,14.34
2018-09-03T02:44:50.382Z,14.29
2018-09-03T02:45:50.449Z,14.34
2018-09-03T02:46:50.447Z,14.3
2018-09-03T02:47:50.563Z,14.32
2018-09-03T02:48:50.431Z,14.29
2018-09-03T02:49:50.409Z,14.33
2018-09-03T02:50:50.412Z,14.35
2018-09-03T02:51:50.430Z,14.36
2018-09-03T02:52:50.480Z,14.35
2018-09-03T02:53:50.536Z,14.37
2018-09-03T02:54:50.455Z,14.37
2018-09-03T02:55:50.565Z,14.43
2018-09-03T02:56:50.639Z,14.39
2018-09-03T02:57:50.501Z,14.38
2018-09-03T02:58:50.415Z,14.39
2018-09-03T02:59:50.497Z,14.37
2018-09-03T03:00:50.481Z,14.35
2018-09-03T03:01:50.763Z,14.33
2018-09-03T03:02:50.363Z,14.33
2018-09-03T03:03:50.727Z,14.29
2018-09-03T03:04:50.396Z,14.34
2018-09-03T03:05:50.392Z,14.31
2018-09-03T03:06:50.661Z,14.32
2018-09-03T03:07:50.415Z,14.34
2018-09-03T03:08:50.364Z,14.28
2018-09-03T03:09:50.392Z,14.37
2018-09-03T03:10:50.702Z,14.42
2018-09-03T03:11:50.795Z,14.4
2018-09-03T03:12:50.460Z,14.29
2018-09-03T03:13:51.245Z,14.38
2018-09-03T03:14:50.426Z,14.26
2018-09-03T03:15:50.357Z,14.38
2018-09-03T03:16:50.505Z,14.37
2018-09-03T03:17:50.415Z,14.37
2018-09-03T03:18:50.466Z,14.42
2018-09-03T03:19:50.361Z,14.41
2018-09-03T03:20:50.363Z,14.4
2018-09-03T03:21:50.372Z,14.42
2018-09-03T03:22:50.406Z,14.44
2018-09-03T03:23:50.601Z,14.4
2018-09-03T03:24:50.506Z,14.38
2018-09-03T03:25:50.467Z,14.49
2018-09-03T03:26:50.444Z,14.51
2018-09-03T03:27:50.705Z,14.43
2018-09-03T03:28:50.469Z,14.43
2018-09-03T03:29:50.645Z,14.43
2018-09-03T03:30:50.407Z,14.42
2018-09-03T03:31:50.734Z,14.46
2018-09-03T03:32:50.381Z,14.5
2018-09-03T03:33:50.558Z,14.42
2018-09-03T03:34:50.681Z,14.48
2018-09-03T03:35:50.422Z,14.47
2018-09-03T03:36:50.389Z,14.49
2018-09-03T03:37:50.411Z,14.47
2018-09-03T03:38:50.359Z,14.45
2018-09-03T03:39:50.567Z,14.48
2018-09-03T03:40:50.452Z,14.54
2018-09-03T03:41:50.454Z,14.52
2018-09-03T03:42:50.572Z,14.51
2018-09-03T03:43:50.775Z,14.5
2018-09-03T03:44:50.713Z,14.44
2018-09-03T03:45:50.368Z,14.48
2018-09-03T03:46:50.401Z,14.42
2018-09-03T03:47:50.727Z,14.52
2018-09-03T03:48:50.353Z,14.47
2018-09-03T03:49:50.366Z,14.47
2018-09-03T03:50:50.391Z,14.51
2018-09-03T03:51:50.362Z,14.48
2018-09-03T03:52:50.529Z,14.54
2018-09-03T03:53:50.376Z,14.54
2018-09-03T03:54:50.448Z,14.52
2018-09-03T03:55:50.552Z,14.55
2018-09-03T03:56:50.426Z,14.45
2018-09-03T03:57:50.713Z,14.52
2018-09-03T03:58:50.363Z,14.58
2018-09-03T03:59:50.510Z,14.53
2018-09-03T04:00:50.404Z,14.53
2018-09-03T04:01:50.507Z,14.57
2018-09-03T04:02:50.338Z,14.63
2018-09-03T04:03:50.389Z,14.58
2018-09-03T04:04:50.373Z,14.58
2018-09-03T04:05:50.403Z,14.53
2018-09-03T04:06:50.378Z,14.53
2018-09-03T04:07:50.389Z,14.5
2018-09-03T04:08:50.365Z,14.6
2018-09-03T04:09:50.343Z,14.66
2018-09-03T04:10:50.336Z,14.68
2018-09-03T04:11:50.382Z,14.65
2018-09-03T04:12:50.359Z,14.62
2018-09-03T04:13:50.359Z,14.53
2018-09-03T04:14:50.386Z,14.58
2018-09-03T04:15:50.399Z,14.52
2018-09-03T04:16:50.524Z,14.52
2018-09-03T04:17:50.379Z,14.46
2018-09-03T04:18:50.371Z,14.48
2018-09-03T04:19:50.338Z,14.53
2018-09-03T04:20:50.339Z,14.51
2018-09-03T04:21:50.399Z,14.6
2018-09-03T04:22:50.741Z,14.58
2018-09-03T04:23:50.619Z,14.62
2018-09-03T04:24:50.370Z,14.6
2018-09-03T04:25:50.733Z,14.55
2018-09-03T04:26:50.444Z,14.47
2018-09-03T04:27:50.349Z,14.59
2018-09-03T04:28:50.985Z,14.56
2018-09-03T04:29:51.597Z,14.61
2018-09-03T04:30:50.460Z,14.52
2018-09-03T04:31:50.345Z,14.52
2018-09-03T04:32:50.414Z,14.51
2018-09-03T04:33:50.576Z,14.5
2018-09-03T04:34:50.367Z,14.44
2018-09-03T04:35:50.415Z,14.47
2018-09-03T04:36:50.540Z,14.47
2018-09-03T04:37:50.363Z,14.43
2018-09-03T04:38:51.323Z,14.45
2018-09-03T04:39:50.372Z,14.46
2018-09-03T04:40:50.337Z,14.54
2018-09-03T04:41:50.411Z,14.53
2018-09-03T04:42:50.545Z,14.43
2018-09-03T04:43:50.418Z,14.44
2018-09-03T04:44:50.334Z,14.53
2018-09-03T04:45:50.369Z,14.51
2018-09-03T04:46:50.406Z,14.42
2018-09-03T04:47:50.472Z,14.37
2018-09-03T04:48:50.432Z,14.4
2018-09-03T04:49:50.467Z,14.36
2018-09-03T04:50:50.394Z,14.36
2018-09-03T04:51:50.355Z,14.4
2018-09-03T04:52:50.348Z,14.42
2018-09-03T04:53:50.375Z,14.42
2018-09-03T04:54:50.471Z,14.41
2018-09-03T04:55:50.546Z,14.38
2018-09-03T04:56:50.338Z,14.31
2018-09-03T04:57:50.315Z,14.32
2018-09-03T04:58:50.392Z,14.49
2018-09-03T04:59:50.341Z,14.47
2018-09-03T05:00:50.378Z,14.44
2018-09-03T05:01:50.385Z,14.49
2018-09-03T05:02:50.324Z,14.57
2018-09-03T05:03:50.372Z,14.63
2018-09-03T05:04:50.435Z,14.61
2018-09-03T05:05:51.369Z,14.58
2018-09-03T05:06:50.444Z,14.52
2018-09-03T05:07:50.462Z,14.56
2018-09-03T05:08:50.459Z,14.62
2018-09-03T05:09:50.588Z,14.55
2018-09-03T05:10:50.397Z,14.51
2018-09-03T05:11:51.380Z,14.58
2018-09-03T05:12:50.553Z,14.59
2018-09-03T05:13:50.369Z,14.56
2018-09-03T05:14:50.356Z,14.63
2018-09-03T05:15:50.492Z,14.63
2018-09-03T05:16:50.387Z,14.56
2018-09-03T05:17:50.377Z,14.61
2018-09-03T05:18:50.465Z,14.51
2018-09-03T05:19:50.333Z,14.52
2018-09-03T05:20:50.397Z,14.59
2018-09-03T05:21:50.410Z,14.58
2018-09-03T05:22:50.654Z,14.55
2018-09-03T05:23:50.547Z,14.54
2018-09-03T05:24:50.649Z,14.6
2018-09-03T05:25:50.372Z,14.64
2018-09-03T05:26:50.357Z,14.66
2018-09-03T05:27:50.380Z,14.66
2018-09-03T05:28:50.350Z,14.68
2018-09-03T05:29:50.368Z,14.65
2018-09-03T05:30:50.388Z,14.56
2018-09-03T05:31:50.363Z,14.53
2018-09-03T05:32:50.457Z,14.59
2018-09-03T05:33:50.371Z,14.5
2018-09-03T05:34:50.399Z,14.55
2018-09-03T05:35:50.375Z,14.52
2018-09-03T05:36:50.349Z,14.48
2018-09-03T05:37:50.377Z,14.41
2018-09-03T05:38:50.371Z,14.52
2018-09-03T05:39:50.369Z,14.45
2018-09-03T05:40:50.375Z,14.51
2018-09-03T05:41:50.379Z,14.55
2018-09-03T05:42:50.356Z,14.55
2018-09-03T05:43:50.605Z,14.47
2018-09-03T05:44:50.373Z,14.53
2018-09-03T05:45:50.380Z,14.58
2018-09-03T05:46:50.513Z,14.55
2018-09-03T05:47:50.589Z,14.52
2018-09-03T05:48:50.400Z,14.57
2018-09-03T05:49:50.652Z,14.53
2018-09-03T05:50:50.493Z,14.52
2018-09-03T05:51:50.547Z,14.52
2018-09-03T05:52:50.433Z,14.54
2018-09-03T05:53:51.202Z,14.48
2018-09-03T05:54:50.613Z,14.49
2018-09-03T05:55:50.438Z,14.47
2018-09-03T05:56:50.553Z,14.52
2018-09-03T05:57:50.392Z,14.49
2018-09-03T05:58:50.394Z,14.51
2018-09-03T05:59:50.505Z,14.46
2018-09-03T06:00:50.454Z,14.56
2018-09-03T06:01:50.530Z,14.52
2018-09-03T06:02:50.478Z,14.5
2018-09-03T06:03:50.379Z,14.55
2018-09-03T06:04:50.761Z,14.51
2018-09-03T06:05:50.549Z,14.57
2018-09-03T06:06:50.444Z,14.58
2018-09-03T06:07:50.479Z,14.59
2018-09-03T06:08:50.457Z,14.56
2018-09-03T06:09:50.482Z,14.64
2018-09-03T06:10:50.415Z,14.62
2018-09-03T06:11:50.558Z,14.66
2018-09-03T06:12:50.538Z,14.65
2018-09-03T06:13:50.427Z,14.67
2018-09-03T06:14:50.407Z,14.7
2018-09-03T06:15:50.717Z,14.67
2018-09-03T06:16:50.444Z,14.67
2018-09-03T06:17:51.071Z,14.71
2018-09-03T06:18:50.392Z,14.79
2018-09-03T06:19:50.402Z,14.79
2018-09-03T06:20:50.625Z,14.79
2018-09-03T06:21:50.586Z,14.73
2018-09-03T06:22:50.431Z,14.86
2018-09-03T06:23:50.577Z,14.85
2018-09-03T06:24:50.467Z,14.8
2018-09-03T06:25:50.476Z,14.82
2018-09-03T06:26:50.392Z,14.75
2018-09-03T06:27:50.441Z,14.78
2018-09-03T06:28:50.483Z,14.8
2018-09-03T06:29:50.442Z,14.82
2018-09-03T06:30:50.415Z,14.74
2018-09-03T06:31:50.461Z,14.78
2018-09-03T06:32:50.711Z,14.82
2018-09-03T06:33:51.071Z,14.75
2018-09-03T06:34:50.539Z,14.84
2018-09-03T06:35:50.785Z,14.87
2018-09-03T06:36:50.462Z,14.93
2018-09-03T06:37:50.469Z,14.81
2018-09-03T06:38:50.492Z,14.77
2018-09-03T06:39:50.491Z,14.76
2018-09-03T06:40:50.521Z,14.78
2018-09-03T06:41:50.538Z,14.79
2018-09-03T06:42:50.603Z,14.78
2018-09-03T06:43:50.468Z,14.84
2018-09-03T06:44:50.819Z,14.8
2018-09-03T06:45:50.560Z,14.88
2018-09-03T06:46:50.537Z,14.8
2018-09-03T06:47:50.426Z,14.82
2018-09-03T06:48:50.634Z,14.84
2018-09-03T06:49:50.403Z,14.81
2018-09-03T06:50:50.401Z,14.82
2018-09-03T06:51:50.831Z,14.85
2018-09-03T06:52:50.941Z,14.83
2018-09-03T06:53:50.437Z,14.89
2018-09-03T06:54:50.487Z,14.87
2018-09-03T06:55:50.408Z,14.89
2018-09-03T06:56:50.894Z,14.86
2018-09-03T06:57:50.422Z,14.86
2018-09-03T06:58:50.419Z,14.83
2018-09-03T06:59:50.470Z,14.83
2018-09-03T07:00:50.435Z,14.9
2018-09-03T07:01:51.278Z,14.87
2018-09-03T07:02:50.746Z,14.88
2018-09-03T07:03:50.428Z,14.84
2018-09-03T07:04:50.444Z,14.86
2018-09-03T07:05:50.564Z,14.87
2018-09-03T07:06:50.919Z,14.78
2018-09-03T07:07:50.788Z,14.71
2018-09-03T07:08:50.511Z,14.73
2018-09-03T07:09:50.486Z,14.81
2018-09-03T07:10:50.571Z,14.78
2018-09-03T07:11:50.503Z,14.77
2018-09-03T07:12:50.689Z,14.76
2018-09-03T07:13:50.424Z,14.74
2018-09-03T07:14:50.505Z,14.75
2018-09-03T07:15:50.776Z,14.77
2018-09-03T07:16:50.429Z,14.8
2018-09-03T07:17:50.514Z,14.83
2018-09-03T07:18:50.967Z,14.75
2018-09-03T07:19:50.507Z,14.8
2018-09-03T07:20:50.645Z,14.77
2018-09-03T07:21:50.487Z,14.73
2018-09-03T07:22:50.531Z,14.73
2018-09-03T07:23:50.917Z,14.74
2018-09-03T07:24:50.442Z,14.75
2018-09-03T07:25:50.625Z,14.79
2018-09-03T07:26:50.426Z,14.83
2018-09-03T07:27:50.491Z,14.76
2018-09-03T07:28:51.102Z,14.79
2018-09-03T07:29:50.738Z,14.82
2018-09-03T07:30:50.462Z,14.8
2018-09-03T07:31:50.448Z,14.81
2018-09-03T07:32:50.544Z,14.83
2018-09-03T07:33:50.434Z,14.85
2018-09-03T07:34:50.412Z,14.87
2018-09-03T07:35:50.451Z,14.81
2018-09-03T07:36:50.759Z,14.79
2018-09-03T07:37:50.476Z,14.82
2018-09-03T07:38:50.569Z,14.8
2018-09-03T07:39:50.487Z,14.81
2018-09-03T07:40:50.432Z,14.78
2018-09-03T07:41:50.489Z,14.76
2018-09-03T07:42:50.408Z,14.81
2018-09-03T07:43:50.568Z,14.82
2018-09-03T07:44:50.515Z,14.84
2018-09-03T07:45:50.460Z,14.79
2018-09-03T07:46:50.511Z,14.84
2018-09-03T07:47:50.486Z,14.92
2018-09-03T07:48:50.832Z,14.99
2018-09-03T07:49:50.457Z,15.09
2018-09-03T07:50:50.657Z,15.03
2018-09-03T07:51:50.483Z,14.99
2018-09-03T07:52:50.459Z,14.92
2018-09-03T07:53:50.531Z,14.85
2018-09-03T07:54:50.452Z,14.87
2018-09-03T07:55:50.836Z,14.9
2018-09-03T07:56:50.902Z,14.85
2018-09-03T07:57:50.720Z,14.87
2018-09-03T07:58:50.502Z,14.9
2018-09-03T07:59:50.508Z,15
2018-09-03T08:00:50.434Z,14.98
2018-09-03T08:01:50.722Z,15
2018-09-03T08:02:50.445Z,14.73
2018-09-03T08:03:50.500Z,14.85
2018-09-03T08:04:50.667Z,14.94
2018-09-03T08:05:50.577Z,14.8
2018-09-03T08:06:51.080Z,14.92
2018-09-03T08:07:50.527Z,14.92
2018-09-03T08:08:50.475Z,14.98
2018-09-03T08:09:50.484Z,15.03
2018-09-03T08:10:50.588Z,15.05
2018-09-03T08:11:50.698Z,14.97
2018-09-03T08:12:50.813Z,15.03
2018-09-03T08:13:50.468Z,14.88
2018-09-03T08:14:50.456Z,14.91
2018-09-03T08:15:50.522Z,14.92
2018-09-03T08:16:50.505Z,14.92
2018-09-03T08:17:50.449Z,14.91
2018-09-03T08:18:50.470Z,14.87
2018-09-03T08:19:50.737Z,14.97
2018-09-03T08:20:50.481Z,14.95
2018-09-03T08:21:50.555Z,14.99
2018-09-03T08:22:50.467Z,14.97
2018-09-03T08:23:50.505Z,14.97
2018-09-03T08:24:50.483Z,14.98
2018-09-03T08:25:50.493Z,15.02
2018-09-03T08:26:50.523Z,15.16
2018-09-03T08:27:50.499Z,15.09
2018-09-03T08:28:50.445Z,15.06
2018-09-03T08:29:50.437Z,15.1
2018-09-03T08:30:50.447Z,15.1
2018-09-03T08:31:50.555Z,15.06
2018-09-03T08:32:50.640Z,15.04
2018-09-03T08:33:50.545Z,15.07
2018-09-03T08:34:50.509Z,15.04
2018-09-03T08:35:50.583Z,15.04
2018-09-03T08:36:50.495Z,15.01
2018-09-03T08:37:50.638Z,14.97
2018-09-03T08:38:50.676Z,14.82
2018-09-03T08:39:50.852Z,14.86
2018-09-03T08:40:50.515Z,14.84
2018-09-03T08:41:50.509Z,14.88
2018-09-03T08:42:50.492Z,14.91
2018-09-03T08:43:50.575Z,14.87
2018-09-03T08:44:51.001Z,14.95
2018-09-03T08:45:50.483Z,14.99
2018-09-03T08:46:50.741Z,15.02
2018-09-03T08:47:50.522Z,15.07
2018-09-03T08:48:50.528Z,14.88
2018-09-03T08:49:50.514Z,14.83
2018-09-03T08:50:50.581Z,14.9
2018-09-03T08:51:50.660Z,14.83
2018-09-03T08:52:50.642Z,14.9
2018-09-03T08:53:50.746Z,14.95
2018-09-03T08:54:50.518Z,14.97
2018-09-03T08:55:51.657Z,15.06
2018-09-03T08:56:51.038Z,15.07
2018-09-03T08:57:50.504Z,15.11
2018-09-03T08:58:50.510Z,15.09
2018-09-03T08:59:50.835Z,15.16
2018-09-03T09:00:50.634Z,15.09
2018-09-03T09:01:50.578Z,15.08
2018-09-03T09:02:50.773Z,15.15
2018-09-03T09:03:50.528Z,15.07
2018-09-03T09:04:50.471Z,14.87
2018-09-03T09:05:51.086Z,15
2018-09-03T09:06:50.876Z,15.03
2018-09-03T09:07:50.476Z,14.92
2018-09-03T09:08:50.663Z,14.99
2018-09-03T09:09:50.587Z,15.01
2018-09-03T09:10:50.809Z,14.95
2018-09-03T09:11:50.925Z,15.07
2018-09-03T09:12:50.517Z,15.11
2018-09-03T09:13:50.518Z,15.01
2018-09-03T09:14:50.510Z,14.92
2018-09-03T09:15:50.589Z,14.88
2018-09-03T09:16:50.965Z,14.9
2018-09-03T09:17:50.523Z,14.91
2018-09-03T09:18:50.533Z,14.86
2018-09-03T09:19:50.535Z,14.94
2018-09-03T09:20:50.601Z,15
2018-09-03T09:21:50.727Z,14.98
2018-09-03T09:22:50.558Z,15.07
2018-09-03T09:23:50.520Z,15.08
2018-09-03T09:24:50.900Z,15.15
2018-09-03T09:25:50.790Z,15.21
2018-09-03T09:26:50.586Z,15.15
2018-09-03T09:27:50.761Z,15.02
2018-09-03T09:28:50.802Z,15.08
2018-09-03T09:29:50.523Z,15.01
2018-09-03T09:30:50.648Z,15.09
2018-09-03T09:31:50.677Z,14.86
2018-09-03T09:32:50.523Z,14.79
2018-09-03T09:33:50.518Z,14.76
2018-09-03T09:34:50.513Z,14.91
2018-09-03T09:35:50.902Z,14.99
2018-09-03T09:36:51.033Z,15.02
2018-09-03T09:37:50.711Z,15.08
2018-09-03T09:38:50.512Z,15.05
2018-09-03T09:39:50.544Z,15.04
2018-09-03T09:40:50.649Z,14.93
2018-09-03T09:41:50.511Z,14.85
2018-09-03T09:42:51.017Z,14.89
2018-09-03T09:43:50.569Z,14.8
2018-09-03T09:44:50.706Z,14.81
2018-09-03T09:45:50.578Z,14.9
2018-09-03T09:46:50.577Z,14.82
2018-09-03T09:47:50.565Z,14.88
2018-09-03T09:48:50.484Z,14.95
2018-09-03T09:49:50.553Z,14.89
2018-09-03T09:50:50.519Z,14.86
2018-09-03T09:51:50.526Z,14.86
2018-09-03T09:52:50.551Z,14.91
2018-09-03T09:53:50.792Z,14.9
2018-09-03T09:54:50.821Z,14.82
2018-09-03T09:55:50.719Z,14.83
2018-09-03T09:56:50.804Z,14.93
2018-09-03T09:57:50.705Z,14.93
2018-09-03T09:58:50.515Z,14.98
2018-09-03T09:59:50.652Z,14.89
2018-09-03T10:00:50.580Z,14.94
2018-09-03T10:01:50.545Z,14.91
2018-09-03T10:02:50.561Z,14.91
2018-09-03T10:03:50.706Z,14.98
2018-09-03T10:04:50.540Z,14.91
2018-09-03T10:05:50.630Z,14.98
2018-09-03T10:06:50.710Z,15.02
2018-09-03T10:07:50.608Z,15.21
2018-09-03T10:08:50.499Z,15.27
2018-09-03T10:09:50.565Z,15.18
2018-09-03T10:10:50.598Z,15.15
2018-09-03T10:11:50.578Z,15.12
2018-09-03T10:12:50.574Z,15.01
2018-09-03T10:13:50.580Z,15.09
2018-09-03T10:14:50.653Z,15.1
2018-09-03T10:15:50.643Z,15.15
2018-09-03T10:16:50.518Z,15.15
2018-09-03T10:17:50.902Z,15.11
2018-09-03T10:18:50.697Z,15.1
2018-09-03T10:19:50.706Z,15.09
2018-09-03T10:20:50.880Z,15.02
2018-09-03T10:21:50.763Z,15.07
2018-09-03T10:22:50.561Z,15.09
2018-09-03T10:23:50.533Z,15.21
2018-09-03T10:24:50.687Z,15.07
2018-09-03T10:25:50.524Z,15.2
2018-09-03T10:26:50.765Z,15.16
2018-09-03T10:27:50.713Z,15.17
2018-09-03T10:28:50.523Z,15.34
2018-09-03T10:29:50.741Z,15.25
2018-09-03T10:30:50.587Z,15.22
2018-09-03T10:31:50.991Z,15.28
2018-09-03T10:32:50.582Z,15.12
2018-09-03T10:33:50.657Z,15.23
2018-09-03T10:34:50.612Z,15.17
2018-09-03T10:35:50.570Z,15.15
2018-09-03T10:36:50.780Z,15.23
2018-09-03T10:37:50.543Z,15.18
2018-09-03T10:38:50.666Z,15.13
2018-09-03T10:39:50.679Z,15.22
2018-09-03T10:40:50.580Z,15.19
2018-09-03T10:41:50.540Z,15.26
2018-09-03T10:42:50.598Z,15.27
2018-09-03T10:43:50.629Z,15.24
2018-09-03T10:44:50.696Z,15.18
2018-09-03T10:45:50.632Z,15.1
2018-09-03T10:46:50.971Z,15.06
2018-09-03T10:47:50.624Z,15.08
2018-09-03T10:48:50.562Z,15.24
2018-09-03T10:49:51.277Z,15.41
2018-09-03T10:50:50.568Z,15.43
2018-09-03T10:51:50.545Z,15.33
2018-09-03T10:52:50.785Z,15.15
2018-09-03T10:53:50.564Z,15.21
2018-09-03T10:54:50.678Z,15.22
2018-09-03T10:55:51.142Z,15.24
2018-09-03T10:56:50.563Z,15.23
2018-09-03T10:57:50.563Z,15.18
2018-09-03T10:58:50.752Z,15.09
2018-09-03T10:59:50.570Z,15.23
2018-09-03T11:00:50.541Z,15.23
2018-09-03T11:01:50.593Z,15.07
2018-09-03T11:02:50.614Z,15.36
2018-09-03T11:03:50.567Z,15.4
2018-09-03T11:04:50.574Z,15.35
2018-09-03T11:05:50.719Z,15.11
2018-09-03T11:06:50.667Z,15.13
2018-09-03T11:07:50.600Z,15.25
2018-09-03T11:08:50.564Z,15.29
2018-09-03T11:09:50.639Z,15.3
2018-09-03T11:10:50.619Z,15.12
2018-09-03T11:11:50.539Z,15.08
2018-09-03T11:12:50.715Z,15.17
2018-09-03T11:13:51.021Z,15.32
2018-09-03T11:14:50.571Z,15.25
2018-09-03T11:15:50.687Z,15.27
2018-09-03T11:16:50.630Z,15.2
2018-09-03T11:17:50.931Z,15.2
2018-09-03T11:18:50.773Z,15.18
2018-09-03T11:19:50.950Z,15.24
2018-09-03T11:20:50.829Z,15.28
2018-09-03T11:21:50.625Z,15.23
2018-09-03T11:22:50.734Z,15.28
2018-09-03T11:23:51.936Z,15.04
2018-09-03T11:24:50.723Z,15.06
2018-09-03T11:25:50.734Z,15.06
2018-09-03T11:26:50.839Z,15.1
2018-09-03T11:27:50.928Z,15
2018-09-03T11:28:51.097Z,15.14
2018-09-03T11:29:50.603Z,15.1
2018-09-03T11:30:50.814Z,15.18
2018-09-03T11:31:50.703Z,14.98
2018-09-03T11:32:50.643Z,15.1
2018-09-03T11:33:50.709Z,14.97
2018-09-03T11:34:50.721Z,14.97
2018-09-03T11:35:50.694Z,15.03
2018-09-03T11:36:50.583Z,15.08
2018-09-03T11:37:50.635Z,15.05
2018-09-03T11:38:50.622Z,15
2018-09-03T11:39:50.672Z,15.04
2018-09-03T11:40:51.195Z,15.12
2018-09-03T11:41:50.613Z,15.11
2018-09-03T11:42:50.712Z,15.1
2018-09-03T11:43:51.139Z,15.26
2018-09-03T11:44:50.940Z,15.24
2018-09-03T11:45:50.632Z,15.02
2018-09-03T11:46:50.655Z,14.96
2018-09-03T11:47:50.759Z,15.13
2018-09-03T11:48:50.615Z,15.22
2018-09-03T11:49:50.719Z,15.22
2018-09-03T11:50:50.588Z,15.24
2018-09-03T11:51:50.843Z,15.14
2018-09-03T11:52:50.588Z,15.14
2018-09-03T11:53:50.635Z,15.05
2018-09-03T11:54:51.059Z,15.08
2018-09-03T11:55:50.929Z,15.13
2018-09-03T11:56:50.623Z,15.09
2018-09-03T11:57:51.194Z,15.15
2018-09-03T11:58:50.628Z,14.92
2018-09-03T11:59:50.954Z,15.01
2018-09-03T12:00:50.620Z,15.13
2018-09-03T12:01:50.643Z,15.13
2018-09-03T12:02:50.762Z,15.13
2018-09-03T12:03:50.649Z,15.04
2018-09-03T12:04:50.629Z,15.05
2018-09-03T12:05:50.716Z,15.07
2018-09-03T12:06:50.792Z,15.01
2018-09-03T12:07:50.639Z,15.01
2018-09-03T12:08:50.624Z,15.03
2018-09-03T12:09:50.669Z,15.24
2018-09-03T12:10:50.647Z,15.05
2018-09-03T12:11:51.887Z,15.02
2018-09-03T12:12:50.772Z,15.08
2018-09-03T12:13:50.669Z,15.07
2018-09-03T12:14:50.628Z,14.97
2018-09-03T12:15:50.644Z,14.95
2018-09-03T12:16:50.608Z,15.05
2018-09-03T12:17:50.675Z,15.11
2018-09-03T12:18:50.635Z,15.13
2018-09-03T12:19:50.619Z,15.04
2018-09-03T12:20:50.902Z,15.21
2018-09-03T12:21:50.643Z,15.29
2018-09-03T12:22:50.623Z,15.25
2018-09-03T12:23:50.676Z,15.12
2018-09-03T12:24:50.751Z,14.88
2018-09-03T12:25:50.625Z,14.86
2018-09-03T12:26:50.616Z,14.9
2018-09-03T12:27:50.635Z,14.91
2018-09-03T12:28:50.617Z,14.96
2018-09-03T12:29:50.611Z,15.04
2018-09-03T12:30:50.780Z,15.02
2018-09-03T12:31:50.713Z,14.75
2018-09-03T12:32:50.671Z,14.85
2018-09-03T12:33:50.646Z,14.91
2018-09-03T12:34:50.629Z,15
2018-09-03T12:35:50.678Z,15
2018-09-03T12:36:50.889Z,14.81
2018-09-03T12:37:50.602Z,14.77
2018-09-03T12:38:50.786Z,14.86
2018-09-03T12:39:50.626Z,14.94
2018-09-03T12:40:50.723Z,14.87
2018-09-03T12:41:50.782Z,14.77
2018-09-03T12:42:50.847Z,14.88
2018-09-03T12:43:50.651Z,14.93
2018-09-03T12:44:50.638Z,14.93
2018-09-03T12:45:51.405Z,14.8
2018-09-03T12:46:50.714Z,14.81
2018-09-03T12:47:50.634Z,14.93
2018-09-03T12:48:50.663Z,15.11
2018-09-03T12:49:51.056Z,15.06
2018-09-03T12:50:50.747Z,15.07
2018-09-03T12:51:50.713Z,15.06
2018-09-03T12:52:50.654Z,14.97
2018-09-03T12:53:50.668Z,15.07
2018-09-03T12:54:50.739Z,15.11
2018-09-03T12:55:50.748Z,15.09